createdAt,value
2023-04-17T00:00:08.889Z,64.61
2023-04-17T00:03:17.142Z,63.93
2023-04-17T00:06:06.535Z,62.55
2023-04-17T00:08:54.518Z,60.60
2023-04-17T00:11:42.460Z,58.00
2023-04-17T00:14:30.324Z,57.91
2023-04-17T00:17:18.145Z,58.70
2023-04-17T00:20:10.269Z,60.93
2023-04-17T00:22:57.774Z,64.31
2023-04-17T00:25:45.731Z,65.78
2023-04-17T00:28:33.966Z,64.38
2023-04-17T00:31:22.155Z,63.28
2023-04-17T00:34:10.067Z,62.94
2023-04-17T00:36:59.258Z,61.58
2023-04-17T00:39:46.913Z,61.17
2023-04-17T00:42:34.689Z,57.62
2023-04-17T00:45:22.517Z,58.75
2023-04-17T00:48:11.284Z,60.36
2023-04-17T00:51:02.411Z,63.16
2023-04-17T00:53:50.498Z,63.53
2023-04-17T00:56:38.737Z,63.48
2023-04-17T00:59:28.226Z,63.44
2023-04-17T01:02:17.471Z,60.60
2023-04-17T01:05:06.040Z,59.27
2023-04-17T01:07:57.054Z,58.70
2023-04-17T01:10:44.986Z,60.98
2023-04-17T01:13:33.029Z,63.48
2023-04-17T01:16:20.870Z,64.99
2023-04-17T01:19:09.175Z,63.89
2023-04-17T01:21:57.767Z,64.11
2023-04-17T01:24:45.807Z,61.96
2023-04-17T01:27:35.328Z,62.07
2023-04-17T01:30:23.088Z,60.50
2023-04-17T01:33:21.890Z,58.29
2023-04-17T01:36:10.064Z,58.48
2023-04-17T01:38:58.024Z,60.41
2023-04-17T01:41:46.203Z,64.14
2023-04-17T01:44:33.750Z,65.12
2023-04-17T01:47:21.646Z,64.76
2023-04-17T01:50:11.021Z,61.38
2023-04-17T01:52:58.639Z,62.08
2023-04-17T01:55:46.528Z,62.23
2023-04-17T01:58:34.503Z,61.76
2023-04-17T02:01:22.116Z,60.55
2023-04-17T02:04:10.191Z,58.27
2023-04-17T02:06:58.693Z,57.24
2023-04-17T02:09:46.484Z,58.91
2023-04-17T02:12:34.327Z,60.85
2023-04-17T02:15:22.134Z,64.57
2023-04-17T02:18:10.168Z,66.20
2023-04-17T02:20:58.052Z,64.35
2023-04-17T02:23:45.890Z,64.24
2023-04-17T02:26:33.928Z,61.55
2023-04-17T02:29:21.905Z,62.01
2023-04-17T02:32:09.554Z,61.35
2023-04-17T02:34:57.393Z,59.70
2023-04-17T02:37:45.642Z,58.68
2023-04-17T02:40:33.466Z,59.16
2023-04-17T02:43:22.613Z,60.16
2023-04-17T02:46:10.677Z,63.70
2023-04-17T02:48:58.570Z,65.87
2023-04-17T02:51:46.382Z,64.45
2023-04-17T02:54:34.329Z,63.26
2023-04-17T02:57:23.535Z,62.71
2023-04-17T03:00:14.994Z,63.11
2023-04-17T03:03:03.497Z,62.62
2023-04-17T03:05:51.383Z,61.13
2023-04-17T03:08:39.442Z,60.93
2023-04-17T03:11:27.417Z,58.79
2023-04-17T03:14:15.864Z,59.48
2023-04-17T03:17:03.596Z,62.34
2023-04-17T03:19:51.627Z,64.54
2023-04-17T03:22:39.607Z,65.37
2023-04-17T03:25:32.673Z,63.46
2023-04-17T03:28:22.209Z,62.11
2023-04-17T03:31:11.134Z,60.56
2023-04-17T03:33:59.695Z,61.32
2023-04-17T03:36:48.457Z,61.55
2023-04-17T03:39:37.675Z,61.29
2023-04-17T03:42:27.420Z,60.70
2023-04-17T03:45:16.871Z,58.90
2023-04-17T03:48:05.170Z,59.09
2023-04-17T03:50:53.727Z,60.18
2023-04-17T03:53:41.569Z,63.86
2023-04-17T03:56:30.786Z,64.79
2023-04-17T03:59:19.327Z,63.71
2023-04-17T04:02:07.429Z,63.72
2023-04-17T04:04:56.502Z,62.29
2023-04-17T04:07:44.967Z,59.54
2023-04-17T04:10:32.866Z,59.20
2023-04-17T04:13:20.778Z,60.70
2023-04-17T04:16:15.846Z,64.09
2023-04-17T04:19:07.192Z,63.94
2023-04-17T04:21:56.164Z,64.57
2023-04-17T04:24:45.175Z,62.46
2023-04-17T04:27:33.876Z,61.00
2023-04-17T04:30:21.957Z,61.81
2023-04-17T04:33:11.422Z,58.86
2023-04-17T04:36:03.756Z,59.87
2023-04-17T04:38:52.777Z,63.66
2023-04-17T04:41:46.488Z,63.46
2023-04-17T04:44:34.705Z,62.08
2023-04-17T04:47:23.866Z,62.30
2023-04-17T04:50:11.854Z,61.64
2023-04-17T04:52:59.871Z,59.53
2023-04-17T04:56:00.436Z,59.94
2023-04-17T04:58:48.610Z,62.31
2023-04-17T05:01:37.503Z,64.73
2023-04-17T05:04:25.568Z,64.11
2023-04-17T05:07:15.698Z,62.97
2023-04-17T05:10:06.836Z,61.88
2023-04-17T05:12:56.931Z,60.84
2023-04-17T05:15:44.915Z,60.09
2023-04-17T05:18:33.239Z,58.64
2023-04-17T05:21:21.197Z,60.73
2023-04-17T05:24:10.557Z,64.21
2023-04-17T05:26:58.420Z,64.51
2023-04-17T05:29:46.248Z,63.89
2023-04-17T05:32:35.184Z,61.80
2023-04-17T05:35:49.390Z,60.42
2023-04-17T05:38:37.654Z,60.25
2023-04-17T05:41:30.796Z,59.13
2023-04-17T05:44:18.087Z,61.31
2023-04-17T05:47:06.314Z,64.06
2023-04-17T05:49:57.599Z,64.46
2023-04-17T05:52:48.390Z,62.28
2023-04-17T05:55:36.988Z,61.59
2023-04-17T05:58:26.550Z,60.50
2023-04-17T06:01:22.609Z,60.14
2023-04-17T06:04:13.171Z,58.29
2023-04-17T06:07:03.152Z,60.13
2023-04-17T06:09:51.004Z,63.33
2023-04-17T06:12:38.919Z,64.40
2023-04-17T06:15:28.598Z,62.77
2023-04-17T06:18:17.674Z,60.54
2023-04-17T06:21:09.739Z,58.91
2023-04-17T06:23:57.366Z,58.11
2023-04-17T06:26:45.167Z,60.01
2023-04-17T06:29:33.376Z,62.09
2023-04-17T06:32:21.865Z,63.01
2023-04-17T06:35:13.262Z,61.35
2023-04-17T06:38:05.576Z,60.14
2023-04-17T06:40:53.359Z,58.00
2023-04-17T06:43:41.129Z,59.46
2023-04-17T06:46:35.374Z,63.16
2023-04-17T06:49:25.235Z,62.02
2023-04-17T06:52:12.897Z,60.46
2023-04-17T06:55:00.635Z,58.50
2023-04-17T06:57:48.556Z,58.06
2023-04-17T07:00:36.439Z,60.81
2023-04-17T07:03:24.367Z,63.67
2023-04-17T07:06:12.766Z,63.53
2023-04-17T07:09:01.781Z,61.79
2023-04-17T07:11:49.995Z,59.61
2023-04-17T07:14:38.403Z,58.25
2023-04-17T07:17:27.457Z,58.88
2023-04-17T07:20:15.131Z,62.29
2023-04-17T07:23:02.656Z,62.65
2023-04-17T07:25:51.103Z,61.26
2023-04-17T07:28:40.012Z,58.54
2023-04-17T07:31:28.637Z,59.27
2023-04-17T07:34:17.862Z,61.10
2023-04-17T07:37:06.228Z,63.32
2023-04-17T07:39:54.133Z,62.12
2023-04-17T07:42:42.130Z,59.44
2023-04-17T07:45:30.384Z,58.63
2023-04-17T07:48:19.281Z,60.58
2023-04-17T07:51:07.874Z,61.62
2023-04-17T07:53:55.930Z,62.97
2023-04-17T07:56:46.734Z,61.55
2023-04-17T07:59:36.371Z,58.72
2023-04-17T08:02:24.172Z,58.13
2023-04-17T08:05:12.196Z,60.12
2023-04-17T08:08:02.368Z,61.66
2023-04-17T08:10:50.796Z,62.84
2023-04-17T08:13:38.762Z,61.22
2023-04-17T08:16:26.648Z,58.93
2023-04-17T08:19:14.685Z,59.18
2023-04-17T08:22:05.024Z,60.31
2023-04-17T08:24:58.067Z,61.60
2023-04-17T08:27:46.384Z,62.86
2023-04-17T08:30:38.716Z,62.20
2023-04-17T08:33:27.233Z,61.04
2023-04-17T08:36:15.093Z,56.85
2023-04-17T08:39:02.902Z,57.93
2023-04-17T08:42:07.380Z,58.16
2023-04-17T08:45:06.435Z,59.97
2023-04-17T08:47:54.231Z,62.15
2023-04-17T08:50:47.235Z,62.45
2023-04-17T08:53:35.031Z,61.08
2023-04-17T08:56:23.112Z,59.12
2023-04-17T08:59:11.111Z,57.98
2023-04-17T09:02:05.066Z,60.13
2023-04-17T09:04:53.140Z,61.66
2023-04-17T09:07:44.498Z,62.80
2023-04-17T09:10:46.777Z,62.04
2023-04-17T09:13:40.308Z,60.60
2023-04-17T09:16:29.257Z,56.45
2023-04-17T09:19:16.969Z,55.76
2023-04-17T09:22:23.264Z,58.64
2023-04-17T09:25:23.308Z,60.52
2023-04-17T09:28:14.870Z,61.72
2023-04-17T09:31:18.666Z,63.76
2023-04-17T09:34:08.868Z,61.80
2023-04-17T09:36:56.886Z,59.39
2023-04-17T09:40:02.261Z,58.64
2023-04-17T09:43:01.304Z,59.80
2023-04-17T09:45:49.010Z,61.10
2023-04-17T09:48:36.851Z,64.04
2023-04-17T09:51:26.395Z,64.74
2023-04-17T09:54:16.181Z,59.65
2023-04-17T09:57:08.595Z,58.54
2023-04-17T10:00:01.423Z,60.62
2023-04-17T10:02:52.616Z,62.96
2023-04-17T10:05:40.530Z,62.70
2023-04-17T10:08:28.922Z,59.67
2023-04-17T10:11:16.824Z,58.23
2023-04-17T10:14:20.845Z,59.09
2023-04-17T10:17:32.504Z,61.45
2023-04-17T10:20:23.244Z,62.68
2023-04-17T10:23:36.232Z,61.53
2023-04-17T10:26:29.953Z,58.89
2023-04-17T10:29:18.364Z,59.55
2023-04-17T10:32:16.343Z,60.90
2023-04-17T10:35:16.148Z,62.61
2023-04-17T10:38:08.950Z,61.48
2023-04-17T10:40:58.101Z,58.76
2023-04-17T10:43:47.333Z,57.75
2023-04-17T10:46:47.883Z,58.97
2023-04-17T10:49:56.036Z,60.50
2023-04-17T10:52:45.572Z,61.76
2023-04-17T10:55:33.640Z,62.04
2023-04-17T10:58:22.032Z,60.76
2023-04-17T11:01:19.938Z,57.72
2023-04-17T11:04:09.379Z,57.74
2023-04-17T11:06:57.658Z,58.17
2023-04-17T11:09:52.010Z,58.06
2023-04-17T11:12:39.875Z,58.59
2023-04-17T11:15:34.087Z,58.50
2023-04-17T11:18:22.512Z,58.23
2023-04-17T11:21:13.183Z,58.57
2023-04-17T11:24:03.359Z,58.63
2023-04-17T11:26:51.586Z,58.50
2023-04-17T11:29:39.044Z,58.76
2023-04-17T11:32:27.405Z,59.03
2023-04-17T11:35:14.827Z,59.56
2023-04-17T11:38:14.585Z,59.70
2023-04-17T11:41:02.990Z,59.37
2023-04-17T11:43:52.091Z,59.83
2023-04-17T11:46:40.066Z,60.05
2023-04-17T11:49:29.587Z,60.18
2023-04-17T11:52:17.994Z,60.10
2023-04-17T11:55:09.113Z,60.23
2023-04-17T11:58:02.439Z,59.98
2023-04-17T12:01:06.575Z,59.90
2023-04-17T12:03:59.786Z,59.43
2023-04-17T12:06:47.594Z,59.44
2023-04-17T12:09:36.703Z,59.65
2023-04-17T12:12:24.638Z,59.85
2023-04-17T12:15:12.520Z,59.86
2023-04-17T12:18:00.277Z,59.95
2023-04-17T12:20:48.709Z,59.95
2023-04-17T12:23:36.798Z,59.99
2023-04-17T12:26:28.632Z,60.24
2023-04-17T12:29:17.695Z,60.14
2023-04-17T12:32:05.786Z,59.99
2023-04-17T12:34:53.376Z,59.50
2023-04-17T12:37:42.511Z,59.78
2023-04-17T12:40:30.502Z,60.02
2023-04-17T12:43:18.564Z,60.54
2023-04-17T12:46:06.131Z,60.70
2023-04-17T12:48:59.342Z,60.84
2023-04-17T12:51:47.400Z,60.70
2023-04-17T12:54:35.549Z,60.63
2023-04-17T12:57:23.021Z,60.45
2023-04-17T13:00:11.338Z,60.48
2023-04-17T13:02:59.510Z,60.55
2023-04-17T13:05:49.724Z,60.73
2023-04-17T13:08:37.554Z,60.88
2023-04-17T13:11:25.952Z,61.11
2023-04-17T13:14:15.370Z,61.34
2023-04-17T13:17:03.385Z,61.55
2023-04-17T13:19:52.050Z,61.79
2023-04-17T13:22:40.256Z,62.01
2023-04-17T13:25:29.601Z,62.37
2023-04-17T13:28:17.186Z,62.49
2023-04-17T13:31:05.223Z,61.27
2023-04-17T13:33:53.148Z,57.80
2023-04-17T13:36:42.241Z,57.29
2023-04-17T13:39:30.376Z,58.45
2023-04-17T13:42:19.972Z,59.51
2023-04-17T13:45:08.737Z,60.04
2023-04-17T13:47:56.533Z,60.59
2023-04-17T13:50:44.302Z,60.81
2023-04-17T13:53:32.106Z,60.95
2023-04-17T13:56:23.611Z,61.20
2023-04-17T13:59:12.061Z,61.38
2023-04-17T14:02:04.142Z,61.69
2023-04-17T14:04:52.544Z,61.79
2023-04-17T14:07:40.850Z,61.99
2023-04-17T14:10:28.548Z,62.00
2023-04-17T14:13:16.750Z,62.27
2023-04-17T14:16:06.007Z,62.35
2023-04-17T14:18:53.979Z,62.67
2023-04-17T14:21:42.027Z,59.13
2023-04-17T14:24:30.102Z,58.11
2023-04-17T14:27:17.910Z,58.84
2023-04-17T14:30:19.423Z,59.49
2023-04-17T14:33:25.291Z,59.93
2023-04-17T14:36:30.158Z,60.77
2023-04-17T14:39:36.006Z,61.30
2023-04-17T14:42:23.935Z,61.61
2023-04-17T14:45:13.329Z,61.90
2023-04-17T14:48:01.343Z,62.32
2023-04-17T14:50:50.505Z,63.49
2023-04-17T14:53:38.242Z,62.77
2023-04-17T14:56:28.731Z,59.81
2023-04-17T14:59:16.343Z,57.08
2023-04-17T15:02:07.491Z,57.68
2023-04-17T15:04:55.681Z,59.14
2023-04-17T15:07:43.704Z,59.82
2023-04-17T15:10:40.505Z,60.75
2023-04-17T15:13:36.066Z,61.49
2023-04-17T15:16:23.601Z,61.56
2023-04-17T15:19:11.956Z,62.75
2023-04-17T15:21:59.888Z,61.12
2023-04-17T15:24:47.669Z,58.53
2023-04-17T15:27:35.504Z,58.57
2023-04-17T15:30:23.283Z,59.61
2023-04-17T15:33:12.740Z,60.96
2023-04-17T15:36:02.649Z,61.62
2023-04-17T15:38:50.549Z,62.76
2023-04-17T15:41:41.433Z,61.90
2023-04-17T15:44:29.995Z,62.07
2023-04-17T15:47:17.588Z,57.83
2023-04-17T15:50:06.012Z,57.14
2023-04-17T15:52:53.539Z,58.72
2023-04-17T15:55:43.840Z,60.16
2023-04-17T15:58:31.686Z,61.57
2023-04-17T16:01:19.485Z,61.55
2023-04-17T16:04:07.284Z,63.63
2023-04-17T16:06:55.611Z,63.45
2023-04-17T16:09:44.718Z,59.43
2023-04-17T16:12:32.274Z,59.26
2023-04-17T16:15:19.906Z,60.79
2023-04-17T16:18:08.293Z,62.24
2023-04-17T16:20:55.935Z,64.48
2023-04-17T16:23:45.933Z,64.23
2023-04-17T16:26:33.768Z,60.60
2023-04-17T16:29:22.349Z,57.80
2023-04-17T16:32:12.043Z,58.82
2023-04-17T16:34:59.629Z,60.37
2023-04-17T16:37:47.337Z,62.18
2023-04-17T16:40:35.097Z,63.55
2023-04-17T16:43:23.445Z,61.83
2023-04-17T16:46:22.213Z,61.53
2023-04-17T16:49:16.482Z,58.71
2023-04-17T16:52:05.675Z,57.51
2023-04-17T16:54:53.642Z,59.17
2023-04-17T16:57:43.899Z,60.14
2023-04-17T17:00:32.257Z,62.07
2023-04-17T17:03:19.746Z,63.41
2023-04-17T17:06:07.546Z,62.49
2023-04-17T17:08:55.555Z,61.48
2023-04-17T17:11:43.112Z,58.13
2023-04-17T17:14:30.913Z,57.13
2023-04-17T17:17:19.843Z,59.04
2023-04-17T17:20:08.983Z,61.06
2023-04-17T17:22:56.838Z,61.83
2023-04-17T17:28:37.494Z,63.60
2023-04-17T17:31:24.594Z,60.77
2023-04-17T17:34:25.407Z,58.31
2023-04-17T17:37:13.132Z,58.42
2023-04-17T17:40:00.115Z,59.86
2023-04-17T17:42:47.219Z,61.25
2023-04-17T17:45:33.926Z,62.69
2023-04-17T17:48:20.952Z,64.37
2023-04-17T17:51:08.085Z,61.54
2023-04-17T17:53:57.424Z,56.98
2023-04-17T17:56:45.590Z,57.55
2023-04-17T17:59:32.533Z,58.75
2023-04-17T18:02:19.499Z,60.63
2023-04-17T18:05:06.541Z,61.90
2023-04-17T18:07:53.440Z,64.78
2023-04-17T18:10:40.050Z,63.33
2023-04-17T18:13:26.932Z,61.57
2023-04-17T18:16:13.965Z,57.72
2023-04-17T18:19:03.273Z,57.60
2023-04-17T18:21:49.419Z,59.39
2023-04-17T18:24:37.360Z,61.78
2023-04-17T18:27:27.393Z,64.53
2023-04-17T18:30:16.250Z,64.08
2023-04-17T18:33:04.894Z,63.80
2023-04-17T18:35:53.602Z,62.08
2023-04-17T18:38:40.866Z,60.82
2023-04-17T18:41:29.690Z,58.46
2023-04-17T18:44:17.241Z,57.42
2023-04-17T18:47:03.454Z,58.94
2023-04-17T18:49:53.112Z,60.95
2023-04-17T18:52:47.635Z,63.08
2023-04-17T18:55:37.820Z,65.04
2023-04-17T18:58:24.253Z,65.91
2023-04-17T19:01:11.082Z,63.41
2023-04-17T19:03:58.042Z,62.10
2023-04-17T19:06:47.955Z,61.90
2023-04-17T19:09:37.413Z,61.62
2023-04-17T19:12:23.784Z,61.10
2023-04-17T19:15:11.919Z,58.81
2023-04-17T19:18:09.315Z,57.79
2023-04-17T19:20:56.472Z,59.05
2023-04-17T19:23:43.497Z,61.71
2023-04-17T19:26:33.140Z,65.51
2023-04-17T19:29:23.288Z,64.64
2023-04-17T19:32:14.353Z,64.46
2023-04-17T19:35:04.457Z,63.25
2023-04-17T19:37:52.661Z,63.26
2023-04-17T19:40:40.091Z,62.39
2023-04-17T19:43:27.181Z,62.39
2023-04-17T19:46:14.230Z,61.47
2023-04-17T19:49:01.659Z,58.80
2023-04-17T19:51:50.101Z,58.64
2023-04-17T19:54:36.441Z,60.01
2023-04-17T19:57:23.163Z,62.94
2023-04-17T20:00:12.527Z,65.65
2023-04-17T20:03:04.066Z,64.83
2023-04-17T20:05:50.900Z,64.05
2023-04-17T20:08:37.209Z,63.37
2023-04-17T20:11:24.595Z,61.28
2023-04-17T20:14:14.076Z,61.91
2023-04-17T20:17:00.328Z,62.07
2023-04-17T20:19:46.861Z,61.89
2023-04-17T20:22:33.270Z,61.40
2023-04-17T20:25:20.011Z,61.12
2023-04-17T20:28:07.207Z,60.93
2023-04-17T20:30:55.403Z,60.58
2023-04-17T20:33:43.167Z,58.64
2023-04-17T20:36:29.681Z,58.12
2023-04-17T20:39:16.332Z,59.46
2023-04-17T20:42:03.074Z,61.32
2023-04-17T20:44:50.634Z,64.94
2023-04-17T20:47:55.354Z,66.35
2023-04-17T20:50:43.960Z,65.66
2023-04-17T20:53:30.550Z,64.67
2023-04-17T20:56:17.085Z,63.84
2023-04-17T20:59:03.290Z,62.69
2023-04-17T21:01:52.286Z,62.46
2023-04-17T21:04:40.833Z,60.80
2023-04-17T21:07:27.154Z,61.01
2023-04-17T21:10:13.818Z,60.98
2023-04-17T21:13:00.490Z,60.27
2023-04-17T21:15:48.157Z,60.43
2023-04-17T21:18:34.756Z,60.50
2023-04-17T21:21:20.922Z,60.12
2023-04-17T21:24:08.512Z,58.00
2023-04-17T21:27:00.945Z,57.87
2023-04-17T21:29:47.746Z,59.79
2023-04-17T21:32:34.747Z,62.49
2023-04-17T21:35:21.670Z,63.87
2023-04-17T21:38:13.217Z,64.09
2023-04-17T21:41:08.424Z,62.39
2023-04-17T21:43:57.859Z,62.81
2023-04-17T21:46:45.614Z,61.89
2023-04-17T21:49:32.394Z,61.08
2023-04-17T21:52:19.098Z,60.28
2023-04-17T21:55:08.042Z,58.24
2023-04-17T21:57:54.334Z,58.32
2023-04-17T22:00:41.775Z,60.17
2023-04-17T22:03:28.351Z,63.77
2023-04-17T22:06:15.254Z,64.84
2023-04-17T22:09:04.210Z,63.57
2023-04-17T22:11:50.457Z,61.48
2023-04-17T22:14:37.560Z,62.28
2023-04-17T22:17:25.169Z,61.80
2023-04-17T22:20:13.566Z,60.37
2023-04-17T22:23:00.362Z,57.96
2023-04-17T22:25:48.415Z,57.41
2023-04-17T22:28:34.955Z,58.75
2023-04-17T22:31:21.665Z,60.28
2023-04-17T22:34:08.361Z,64.44
2023-04-17T22:36:54.806Z,65.12
2023-04-17T22:39:41.567Z,64.00
2023-04-17T22:42:28.483Z,62.90
2023-04-17T22:45:15.427Z,61.58
2023-04-17T22:48:02.486Z,61.81
2023-04-17T22:50:49.814Z,61.15
2023-04-17T22:53:37.985Z,60.34
2023-04-17T22:56:24.550Z,60.13
2023-04-17T22:59:11.393Z,58.43
2023-04-17T23:01:58.442Z,57.68
2023-04-17T23:04:45.963Z,60.78
2023-04-17T23:07:32.716Z,63.24
2023-04-17T23:10:21.425Z,65.20
2023-04-17T23:13:07.726Z,65.01
2023-04-17T23:15:54.409Z,64.07
2023-04-17T23:18:41.307Z,63.30
2023-04-17T23:21:27.796Z,61.74
2023-04-17T23:24:16.082Z,61.22
2023-04-17T23:27:02.518Z,60.62
2023-04-17T23:29:49.138Z,60.25
2023-04-17T23:32:35.776Z,57.79
2023-04-17T23:35:22.446Z,57.08
2023-04-17T23:38:10.160Z,58.47
2023-04-17T23:40:56.815Z,60.87
2023-04-17T23:43:42.886Z,64.38
2023-04-17T23:46:29.337Z,65.74
2023-04-17T23:49:16.156Z,65.59
2023-04-17T23:52:03.186Z,63.74
2023-04-17T23:54:50.106Z,63.51
2023-04-17T23:57:37.380Z,62.56
